sensor_id;sensor_type;location;lat;lon;timestamp;P1;durP1;ratioP1;P2;durP2;ratioP2
23768;SDS011;12064;50.890;5.424;2022-08-18T00:08:27;9.40;;;8.68;;
23768;SDS011;12064;50.890;5.424;2022-08-18T00:17:18;9.82;;;9.02;;
23768;SDS011;12064;50.890;5.424;2022-08-18T00:26:08;10.30;;;9.48;;
23768;SDS011;12064;50.890;5.424;2022-08-18T00:35:42;10.48;;;9.52;;
23768;SDS011;12064;50.890;5.424;2022-08-18T00:44:15;10.65;;;9.73;;
23768;SDS011;12064;50.890;5.424;2022-08-18T00:53:14;10.68;;;9.77;;
23768;SDS011;12064;50.890;5.424;2022-08-18T01:02:12;11.63;;;10.63;;
23768;SDS011;12064;50.890;5.424;2022-08-18T01:11:16;11.65;;;10.63;;
23768;SDS011;12064;50.890;5.424;2022-08-18T01:20:11;12.95;;;11.75;;
23768;SDS011;12064;50.890;5.424;2022-08-18T01:29:26;14.05;;;12.85;;
23768;SDS011;12064;50.890;5.424;2022-08-18T01:38:17;14.43;;;13.02;;
23768;SDS011;12064;50.890;5.424;2022-08-18T01:47:11;13.50;;;12.30;;
23768;SDS011;12064;50.890;5.424;2022-08-18T01:56:02;12.25;;;11.15;;
23768;SDS011;12064;50.890;5.424;2022-08-18T02:04:55;12.77;;;11.48;;
23768;SDS011;12064;50.890;5.424;2022-08-18T02:13:51;16.30;;;14.57;;
23768;SDS011;12064;50.890;5.424;2022-08-18T02:22:42;17.17;;;15.40;;
23768;SDS011;12064;50.890;5.424;2022-08-18T02:31:34;17.52;;;15.57;;
23768;SDS011;12064;50.890;5.424;2022-08-18T02:40:25;18.55;;;15.82;;
23768;SDS011;12064;50.890;5.424;2022-08-18T02:49:15;19.30;;;15.65;;
23768;SDS011;12064;50.890;5.424;2022-08-18T02:58:16;20.98;;;17.30;;
23768;SDS011;12064;50.890;5.424;2022-08-18T03:16:32;29.02;;;23.60;;
23768;SDS011;12064;50.890;5.424;2022-08-18T03:25:26;31.52;;;23.67;;
23768;SDS011;12064;50.890;5.424;2022-08-18T03:34:18;32.37;;;25.13;;
23768;SDS011;12064;50.890;5.424;2022-08-18T03:43:09;34.95;;;26.35;;
23768;SDS011;12064;50.890;5.424;2022-08-18T03:52:00;32.70;;;25.87;;
23768;SDS011;12064;50.890;5.424;2022-08-18T04:00:52;31.10;;;26.27;;
23768;SDS011;12064;50.890;5.424;2022-08-18T04:09:43;28.50;;;23.98;;
23768;SDS011;12064;50.890;5.424;2022-08-18T04:18:35;25.00;;;22.30;;
23768;SDS011;12064;50.890;5.424;2022-08-18T04:27:26;22.30;;;19.90;;
23768;SDS011;12064;50.890;5.424;2022-08-18T04:36:29;20.45;;;18.25;;
23768;SDS011;12064;50.890;5.424;2022-08-18T04:45:23;19.45;;;17.50;;
23768;SDS011;12064;50.890;5.424;2022-08-18T04:54:14;19.00;;;17.00;;
23768;SDS011;12064;50.890;5.424;2022-08-18T05:03:04;18.10;;;16.23;;
23768;SDS011;12064;50.890;5.424;2022-08-18T05:11:55;16.87;;;15.13;;
23768;SDS011;12064;50.890;5.424;2022-08-18T05:20:46;17.02;;;15.32;;
23768;SDS011;12064;50.890;5.424;2022-08-18T05:29:37;17.15;;;15.38;;
23768;SDS011;12064;50.890;5.424;2022-08-18T05:38:37;26.88;;;22.80;;
23768;SDS011;12064;50.890;5.424;2022-08-18T05:47:37;27.13;;;24.08;;
23768;SDS011;12064;50.890;5.424;2022-08-18T05:56:31;27.67;;;23.15;;
23768;SDS011;12064;50.890;5.424;2022-08-18T06:05:39;26.50;;;23.67;;
23768;SDS011;12064;50.890;5.424;2022-08-18T06:14:36;26.60;;;22.80;;
23768;SDS011;12064;50.890;5.424;2022-08-18T06:32:35;24.38;;;21.77;;
23768;SDS011;12064;50.890;5.424;2022-08-18T06:41:44;28.60;;;22.90;;
23768;SDS011;12064;50.890;5.424;2022-08-18T07:09:16;25.73;;;22.95;;
23768;SDS011;12064;50.890;5.424;2022-08-18T07:18:11;27.77;;;22.83;;
23768;SDS011;12064;50.890;5.424;2022-08-18T07:35:59;31.30;;;25.83;;
23768;SDS011;12064;50.890;5.424;2022-08-18T07:53:59;31.27;;;27.10;;
23768;SDS011;12064;50.890;5.424;2022-08-18T08:12:25;25.80;;;22.05;;
23768;SDS011;12064;50.890;5.424;2022-08-18T08:21:37;21.70;;;17.88;;
23768;SDS011;12064;50.890;5.424;2022-08-18T08:30:39;17.48;;;15.52;;
23768;SDS011;12064;50.890;5.424;2022-08-18T08:39:45;18.42;;;15.13;;
23768;SDS011;12064;50.890;5.424;2022-08-18T08:48:42;16.40;;;14.23;;
23768;SDS011;12064;50.890;5.424;2022-08-18T08:57:41;16.67;;;14.75;;
23768;SDS011;12064;50.890;5.424;2022-08-18T09:24:51;17.15;;;13.93;;
23768;SDS011;12064;50.890;5.424;2022-08-18T09:33:52;16.10;;;13.15;;
23768;SDS011;12064;50.890;5.424;2022-08-18T09:43:10;16.23;;;12.77;;
23768;SDS011;12064;50.890;5.424;2022-08-18T10:19:58;16.92;;;13.27;;
23768;SDS011;12064;50.890;5.424;2022-08-18T10:38:27;17.00;;;13.52;;
23768;SDS011;12064;50.890;5.424;2022-08-18T10:47:28;15.20;;;12.88;;
23768;SDS011;12064;50.890;5.424;2022-08-18T11:05:38;15.10;;;13.35;;
23768;SDS011;12064;50.890;5.424;2022-08-18T11:23:41;15.13;;;13.43;;
23768;SDS011;12064;50.890;5.424;2022-08-18T11:32:33;16.63;;;13.77;;
23768;SDS011;12064;50.890;5.424;2022-08-18T11:41:26;17.55;;;13.82;;
23768;SDS011;12064;50.890;5.424;2022-08-18T11:50:24;16.30;;;13.73;;
23768;SDS011;12064;50.890;5.424;2022-08-18T12:08:29;15.57;;;13.93;;
23768;SDS011;12064;50.890;5.424;2022-08-18T12:17:29;16.58;;;13.73;;
23768;SDS011;12064;50.890;5.424;2022-08-18T12:26:20;16.15;;;13.57;;
23768;SDS011;12064;50.890;5.424;2022-08-18T12:35:11;15.90;;;14.17;;
23768;SDS011;12064;50.890;5.424;2022-08-18T12:44:02;15.45;;;12.93;;
23768;SDS011;12064;50.890;5.424;2022-08-18T12:52:53;15.02;;;13.27;;
23768;SDS011;12064;50.890;5.424;2022-08-18T13:01:43;15.73;;;14.00;;
23768;SDS011;12064;50.890;5.424;2022-08-18T13:10:34;16.73;;;14.00;;
23768;SDS011;12064;50.890;5.424;2022-08-18T13:19:25;15.18;;;13.52;;
23768;SDS011;12064;50.890;5.424;2022-08-18T13:28:16;15.63;;;13.18;;
23768;SDS011;12064;50.890;5.424;2022-08-18T13:37:07;14.97;;;13.37;;
23768;SDS011;12064;50.890;5.424;2022-08-18T13:45:58;16.10;;;13.50;;
23768;SDS011;12064;50.890;5.424;2022-08-18T13:54:49;15.10;;;13.13;;
23768;SDS011;12064;50.890;5.424;2022-08-18T14:03:39;15.93;;;13.43;;
23768;SDS011;12064;50.890;5.424;2022-08-18T14:12:31;13.30;;;12.00;;
23768;SDS011;12064;50.890;5.424;2022-08-18T14:21:23;14.23;;;12.52;;
23768;SDS011;12064;50.890;5.424;2022-08-18T14:30:32;13.73;;;12.30;;
23768;SDS011;12064;50.890;5.424;2022-08-18T14:39:24;13.32;;;11.85;;
23768;SDS011;12064;50.890;5.424;2022-08-18T14:48:18;12.97;;;11.63;;
23768;SDS011;12064;50.890;5.424;2022-08-18T14:57:15;12.95;;;11.55;;
23768;SDS011;12064;50.890;5.424;2022-08-18T15:06:06;12.27;;;10.97;;
23768;SDS011;12064;50.890;5.424;2022-08-18T15:14:57;12.40;;;11.18;;
23768;SDS011;12064;50.890;5.424;2022-08-18T15:23:49;13.52;;;11.65;;
23768;SDS011;12064;50.890;5.424;2022-08-18T15:32:58;12.80;;;11.55;;
23768;SDS011;12064;50.890;5.424;2022-08-18T15:41:48;12.50;;;11.20;;
23768;SDS011;12064;50.890;5.424;2022-08-18T15:50:39;12.17;;;10.83;;
23768;SDS011;12064;50.890;5.424;2022-08-18T15:59:36;12.53;;;11.30;;
23768;SDS011;12064;50.890;5.424;2022-08-18T16:08:29;12.32;;;10.98;;
23768;SDS011;12064;50.890;5.424;2022-08-18T16:17:20;12.65;;;11.35;;
23768;SDS011;12064;50.890;5.424;2022-08-18T16:26:11;12.00;;;10.80;;
23768;SDS011;12064;50.890;5.424;2022-08-18T16:35:04;11.77;;;10.57;;
23768;SDS011;12064;50.890;5.424;2022-08-18T16:43:55;12.43;;;11.13;;
23768;SDS011;12064;50.890;5.424;2022-08-18T16:52:46;12.27;;;10.97;;
23768;SDS011;12064;50.890;5.424;2022-08-18T17:01:39;12.10;;;11.00;;
23768;SDS011;12064;50.890;5.424;2022-08-18T17:10:49;11.23;;;10.13;;
23768;SDS011;12064;50.890;5.424;2022-08-18T17:19:44;10.90;;;9.82;;
23768;SDS011;12064;50.890;5.424;2022-08-18T17:28:40;11.68;;;10.48;;
23768;SDS011;12064;50.890;5.424;2022-08-18T17:46:28;11.20;;;10.10;;
23768;SDS011;12064;50.890;5.424;2022-08-18T17:55:24;10.52;;;9.43;;
23768;SDS011;12064;50.890;5.424;2022-08-18T18:04:17;11.82;;;10.65;;
23768;SDS011;12064;50.890;5.424;2022-08-18T18:22:09;10.10;;;9.10;;
23768;SDS011;12064;50.890;5.424;2022-08-18T18:31:24;10.70;;;9.70;;
23768;SDS011;12064;50.890;5.424;2022-08-18T18:49:20;10.38;;;9.35;;
23768;SDS011;12064;50.890;5.424;2022-08-18T18:58:20;10.52;;;9.52;;
23768;SDS011;12064;50.890;5.424;2022-08-18T19:07:36;10.52;;;9.63;;
23768;SDS011;12064;50.890;5.424;2022-08-18T19:25:49;10.60;;;9.57;;
23768;SDS011;12064;50.890;5.424;2022-08-18T19:34:46;11.27;;;10.27;;
23768;SDS011;12064;50.890;5.424;2022-08-18T19:43:46;11.05;;;10.05;;
23768;SDS011;12064;50.890;5.424;2022-08-18T20:11:22;10.32;;;9.32;;
23768;SDS011;12064;50.890;5.424;2022-08-18T20:20:34;11.30;;;10.20;;
23768;SDS011;12064;50.890;5.424;2022-08-18T20:38:28;10.30;;;9.40;;
23768;SDS011;12064;50.890;5.424;2022-08-18T20:47:27;10.23;;;9.32;;
23768;SDS011;12064;50.890;5.424;2022-08-18T20:56:24;10.95;;;9.85;;
23768;SDS011;12064;50.890;5.424;2022-08-18T21:05:33;10.40;;;9.40;;
23768;SDS011;12064;50.890;5.424;2022-08-18T21:14:26;10.83;;;9.87;;
23768;SDS011;12064;50.890;5.424;2022-08-18T21:23:21;10.60;;;9.70;;
23768;SDS011;12064;50.890;5.424;2022-08-18T21:32:21;10.10;;;9.27;;
23768;SDS011;12064;50.890;5.424;2022-08-18T21:41:18;10.75;;;9.75;;
23768;SDS011;12064;50.890;5.424;2022-08-18T21:50:36;10.97;;;10.00;;
23768;SDS011;12064;50.890;5.424;2022-08-18T21:59:26;10.15;;;9.25;;
23768;SDS011;12064;50.890;5.424;2022-08-18T22:08:18;10.90;;;9.90;;
23768;SDS011;12064;50.890;5.424;2022-08-18T22:17:24;10.73;;;9.73;;
23768;SDS011;12064;50.890;5.424;2022-08-18T22:26:30;9.75;;;8.85;;
23768;SDS011;12064;50.890;5.424;2022-08-18T22:35:22;10.65;;;9.75;;
23768;SDS011;12064;50.890;5.424;2022-08-18T22:44:19;10.30;;;9.40;;
23768;SDS011;12064;50.890;5.424;2022-08-18T22:53:11;9.88;;;8.98;;
23768;SDS011;12064;50.890;5.424;2022-08-18T23:02:03;10.18;;;9.27;;
23768;SDS011;12064;50.890;5.424;2022-08-18T23:10:54;10.18;;;9.25;;
23768;SDS011;12064;50.890;5.424;2022-08-18T23:19:47;10.40;;;9.50;;
23768;SDS011;12064;50.890;5.424;2022-08-18T23:28:38;9.82;;;9.02;;
23768;SDS011;12064;50.890;5.424;2022-08-18T23:37:35;9.88;;;9.02;;
23768;SDS011;12064;50.890;5.424;2022-08-18T23:46:27;9.88;;;9.00;;
23768;SDS011;12064;50.890;5.424;2022-08-18T23:55:19;9.98;;;9.18;;
